Time;durP1;ratioP1;P1;durP2;ratioP2;P2;SDS_P1;SDS_P2;PMS_P1;PMS_P2;Temp;Humidity;BMP_temperature;BMP_pressure;BME280_temperature;BME280_humidity;BME280_pressure;Samples;Min_cycle;Max_cycle;Signal;HPM_P1;HPM_P2
2022/08/04 00:00:08;;;;;;;32.60;18.65;;;;;;;19.12;100.00;101269.13;2041303;28;32962;-70
2022/08/04 00:01:40;;;;;;;31.20;18.25;;;;;;;19.13;100.00;101279.03;2047955;28;30497;-70
2022/08/04 00:03:08;;;;;;;39.92;19.23;;;;;;;19.12;100.00;101268.25;2047982;28;26274;-68
2022/08/04 00:04:17;;;;;;;37.00;18.30;;;;;;;19.10;100.00;101283.75;2047827;28;29982;-69
2022/08/04 00:05:34;;;;;;;39.35;19.48;;;;;;;19.10;100.00;101281.03;2054498;28;42780;-69
2022/08/04 00:07:12;;;;;;;40.50;19.23;;;;;;;19.10;100.00;101273.75;2053947;28;20082;-69
2022/08/04 00:08:25;;;;;;;30.98;16.98;;;;;;;19.07;100.00;101277.50;2047370;28;33832;-69
2022/08/04 00:09:48;;;;;;;36.47;18.63;;;;;;;19.08;100.00;101273.84;2047867;28;30637;-69
2022/08/04 00:10:54;;;;;;;37.70;19.08;;;;;;;19.10;100.00;101267.47;2048294;28;20051;-69
2022/08/04 00:12:01;;;;;;;32.60;18.48;;;;;;;19.07;100.00;101272.06;2047945;28;20098;-69
2022/08/04 00:13:05;;;;;;;32.30;19.13;;;;;;;19.05;100.00;101270.41;2047417;28;32700;-69
2022/08/04 00:14:13;;;;;;;35.75;19.58;;;;;;;19.04;100.00;101269.53;2047344;28;29195;-69
2022/08/04 00:15:17;;;;;;;34.70;18.60;;;;;;;19.04;100.00;101269.53;2048225;28;26368;-69
2022/08/04 00:16:27;;;;;;;33.83;18.02;;;;;;;19.05;100.00;101271.28;2047387;28;29707;-69
2022/08/04 00:17:39;;;;;;;29.90;19.33;;;;;;;19.05;100.00;101267.69;2047401;28;32655;-69
2022/08/04 00:18:54;;;;;;;36.20;20.17;;;;;;;19.04;100.00;101266.81;2047503;28;23359;-69
2022/08/04 00:20:02;;;;;;;32.90;19.10;;;;;;;19.04;100.00;101272.25;2046848;28;41939;-69
2022/08/04 00:21:06;;;;;;;30.83;17.88;;;;;;;19.02;100.00;101271.47;2047451;28;25293;-69
2022/08/04 00:22:11;;;;;;;33.92;17.83;;;;;;;19.03;100.00;101272.34;2047498;28;32597;-69
2022/08/04 00:23:15;;;;;;;33.33;18.77;;;;;;;19.01;100.00;101266.97;2047546;28;25990;-69
2022/08/04 00:24:20;;;;;;;40.28;20.67;;;;;;;19.01;100.00;101275.13;2047432;28;27449;-69
2022/08/04 00:25:23;;;;;;;40.60;19.50;;;;;;;18.97;100.00;101268.09;2046824;28;29446;-69
2022/08/04 00:26:26;;;;;;;34.22;18.65;;;;;;;18.95;100.00;101255.56;2047192;28;20999;-69
2022/08/04 00:27:32;;;;;;;35.58;19.00;;;;;;;18.96;100.00;101268.19;2047474;28;31877;-69
2022/08/04 00:28:41;;;;;;;25.83;15.30;;;;;;;18.91;100.00;101268.41;2046598;28;26565;-69
2022/08/04 00:29:45;;;;;;;34.33;18.52;;;;;;;18.89;100.00;101265.78;2048156;28;20122;-69
2022/08/04 00:30:47;;;;;;;30.63;17.55;;;;;;;18.88;100.00;101266.75;2046338;28;38883;-69
2022/08/04 00:31:49;;;;;;;28.02;16.17;;;;;;;18.87;100.00;101269.53;2046953;28;29604;-69
2022/08/04 00:32:57;;;;;;;32.67;18.25;;;;;;;18.86;100.00;101267.78;2047258;28;29412;-69
2022/08/04 00:34:00;;;;;;;30.90;17.90;;;;;;;18.86;100.00;101262.34;2047691;28;23492;-69
2022/08/04 00:35:01;;;;;;;31.63;18.88;;;;;;;18.86;100.00;101268.69;2047359;28;20040;-69
2022/08/04 00:36:04;;;;;;;35.75;19.23;;;;;;;18.87;100.00;101262.28;2046928;28;34586;-69
2022/08/04 00:37:06;;;;;;;32.15;20.00;;;;;;;18.85;100.00;101276.88;2046984;28;30238;-69
2022/08/04 00:38:12;;;;;;;36.47;20.02;;;;;;;18.85;100.00;101274.19;2047806;28;22267;-69
2022/08/04 00:39:16;;;;;;;37.20;21.00;;;;;;;18.84;100.00;101264.28;2046175;28;33614;-69
2022/08/04 00:40:34;;;;;;;35.00;19.95;;;;;;;18.84;100.00;101266.97;2047562;28;20043;-69
2022/08/04 00:42:05;;;;;;;31.35;19.50;;;;;;;18.81;100.00;101268.03;2047194;28;28638;-69
2022/08/04 00:43:30;;;;;;;33.20;18.52;;;;;;;18.80;100.00;101262.66;2046583;28;34227;-70
2022/08/04 00:45:28;;;;;;;27.77;18.45;;;;;;;18.78;100.00;101267.28;2047647;28;32872;-69
2022/08/04 00:46:53;;;;;;;22.00;14.07;;;;;;;18.74;100.00;101261.13;2046121;28;28873;-68
2022/08/04 00:48:21;;;;;;;35.17;19.23;;;;;;;18.71;100.00;101266.72;2047284;28;29492;-69
2022/08/04 00:50:03;;;;;;;31.02;17.80;;;;;;;18.72;100.00;101267.59;2047828;28;20052;-68
2022/08/04 00:51:19;;;;;;;36.35;20.73;;;;;;;18.70;100.00;101257.72;2047377;28;27715;-69
2022/08/04 00:53:05;;;;;;;38.47;20.42;;;;;;;18.69;100.00;101261.38;2046532;28;36138;-69
2022/08/04 00:54:48;;;;;;;36.95;21.92;;;;;;;18.68;100.00;101254.22;2047055;28;39421;-69
2022/08/04 00:56:05;;;;;;;37.90;22.60;;;;;;;18.70;100.00;101257.72;2047045;28;27187;-69
2022/08/04 00:57:30;;;;;;;35.90;20.95;;;;;;;18.70;100.00;101260.41;2048155;28;33730;-69
2022/08/04 00:58:46;;;;;;;37.75;20.92;;;;;;;18.67;100.00;101252.44;2046298;28;33781;-69
2022/08/04 01:00:10;;;;;;;38.70;22.08;;;;;;;18.66;100.00;101258.84;2047227;28;24427;-69
2022/08/04 01:01:46;;;;;;;37.67;22.48;;;;;;;18.67;100.00;101257.00;2047618;28;31944;-69
2022/08/04 01:03:49;;;;;;;37.40;20.63;;;;;;;18.66;100.00;101252.50;2047454;28;27758;-69
2022/08/04 01:05:14;;;;;;;34.58;20.95;;;;;;;18.64;100.00;101258.00;2046725;28;23639;-68
2022/08/04 01:07:16;;;;;;;33.45;20.15;;;;;;;18.66;100.00;101256.13;2046433;28;28309;-69
2022/08/04 01:08:54;;;;;;;36.53;22.38;;;;;;;18.62;100.00;101251.78;2038309;29;31336;-69
2022/08/04 01:10:25;;;;;;;30.20;19.95;;;;;;;18.61;100.00;101247.34;2038271;29;28306;-69
2022/08/04 01:12:14;;;;;;;36.83;22.20;;;;;;;18.65;100.00;101240.78;2038688;29;26166;-69
2022/08/04 01:14:01;;;;;;;39.58;22.00;;;;;;;18.64;100.00;101246.28;2039774;28;20052;-68
2022/08/04 01:15:12;;;;;;;31.48;21.80;;;;;;;18.61;100.00;101241.91;2046837;28;23913;-69
2022/08/04 01:16:17;;;;;;;39.42;22.38;;;;;;;18.64;100.00;101247.16;2047682;28;20052;-69
2022/08/04 01:17:27;;;;;;;40.42;22.77;;;;;;;18.63;100.00;101242.72;2047346;28;29020;-69
2022/08/04 01:18:54;;;;;;;;;;;;;;;18.62;100.00;101249.06;2047756;28;37169;-69
2022/08/04 01:20:19;;;;;;;35.45;21.98;;;;;;;18.63;100.00;101233.72;2047811;28;22966;-68
2022/08/04 01:21:46;;;;;;;39.25;22.17;;;;;;;18.64;100.00;101235.44;2046634;28;27666;-70
2022/08/04 01:23:15;;;;;;;45.03;24.38;;;;;;;18.65;100.00;101232.66;2047171;28;31369;-69
2022/08/04 01:25:25;;;;;;;33.92;21.40;;;;;;;18.63;100.00;101231.88;2047713;28;22038;-68
2022/08/04 01:26:45;;;;;;;38.72;23.00;;;;;;;18.64;100.00;101224.59;2047094;28;29837;-69
2022/08/04 01:28:21;;;;;;;35.38;21.58;;;;;;;18.63;100.00;101233.72;2047548;28;25194;-69
2022/08/04 01:29:26;;;;;;;41.35;23.98;;;;;;;18.64;100.00;101228.19;2047468;28;25678;-70
2022/08/04 01:30:32;;;;;;;42.70;23.48;;;;;;;18.63;100.00;101223.72;2047501;28;32421;-69
2022/08/04 01:32:02;;;;;;;40.33;23.85;;;;;;;18.63;100.00;101231.00;2046173;28;25570;-69
2022/08/04 01:33:17;;;;;;;39.03;23.60;;;;;;;18.62;100.00;101234.66;2044334;28;29475;-69
2022/08/04 01:34:21;;;;;;;40.03;22.70;;;;;;;18.61;100.00;101224.75;2046274;28;41811;-70
2022/08/04 01:35:28;;;;;;;39.42;23.85;;;;;;;18.59;100.00;101230.28;2046830;28;23621;-69
2022/08/04 01:37:14;;;;;;;34.63;21.77;;;;;;;18.59;100.00;101234.81;2046831;28;32793;-69
2022/08/04 01:38:39;;;;;;;36.13;21.60;;;;;;;18.56;100.00;101232.28;2047299;28;22623;-69
2022/08/04 01:40:00;;;;;;;30.63;20.65;;;;;;;18.56;100.00;101232.28;2045796;28;40400;-69
2022/08/04 01:41:08;;;;;;;37.45;20.52;;;;;;;18.54;100.00;101228.72;2047581;28;32983;-69
2022/08/04 01:42:17;;;;;;;35.55;20.38;;;;;;;18.53;100.00;101230.56;2047827;28;20028;-68
2022/08/04 01:43:39;;;;;;;36.13;22.33;;;;;;;18.56;100.00;101226.84;2046707;28;20770;-69
2022/08/04 01:44:41;;;;;;;37.85;24.20;;;;;;;18.58;100.00;101222.22;2047565;28;20066;-69
2022/08/04 01:45:54;;;;;;;39.38;24.40;;;;;;;18.57;100.00;101224.03;2046883;28;34430;-69
2022/08/04 01:46:56;;;;;;;36.28;24.17;;;;;;;18.57;100.00;101218.59;2046836;28;30859;-69
2022/08/04 01:48:01;;;;;;;45.90;26.20;;;;;;;18.55;100.00;101214.22;2040238;28;29812;-69
2022/08/04 01:49:06;;;;;;;32.95;22.65;;;;;;;18.54;100.00;101224.22;2047218;28;29653;-69
2022/08/04 01:50:12;;;;;;;32.80;20.88;;;;;;;18.53;100.00;101222.44;2047684;28;28783;-70
2022/08/04 01:51:14;;;;;;;28.00;20.33;;;;;;;18.54;100.00;101216.06;2048501;28;27901;-70
2022/08/04 01:52:18;;;;;;;39.10;24.45;;;;;;;18.54;100.00;101217.88;2048318;28;20122;-69
2022/08/04 01:53:22;;;;;;;37.30;23.08;;;;;;;18.55;100.00;101215.09;2048437;28;31521;-69
2022/08/04 01:54:26;;;;;;;38.33;22.77;;;;;;;18.54;100.00;101207.94;2047270;28;39425;-69
2022/08/04 01:55:29;;;;;;;34.17;23.55;;;;;;;18.55;100.00;101211.53;2041387;28;23121;-69
2022/08/04 01:56:53;;;;;;;38.20;24.90;;;;;;;18.56;100.00;101203.31;2048683;28;20031;-70
2022/08/04 01:57:59;;;;;;;36.53;23.70;;;;;;;18.55;100.00;101206.97;2048400;28;28474;-70
2022/08/04 01:59:02;;;;;;;39.85;23.63;;;;;;;18.54;100.00;101212.47;2048706;28;20857;-69
2022/08/04 02:00:05;;;;;;;34.08;22.38;;;;;;;18.54;100.00;101202.50;2048951;28;20058;-69
2022/08/04 02:01:12;;;;;;;36.28;23.30;;;;;;;18.55;100.00;101203.38;2048813;28;25123;-69
2022/08/04 02:02:14;;;;;;;35.65;24.05;;;;;;;18.55;100.00;101200.66;2048184;28;35698;-70
2022/08/04 02:03:16;;;;;;;39.17;24.17;;;;;;;18.54;100.00;101207.94;2048785;28;20177;-70
2022/08/04 02:04:21;;;;;;;34.78;24.25;;;;;;;18.54;100.00;101207.03;2048602;28;23157;-70
2022/08/04 02:05:26;;;;;;;36.25;22.73;;;;;;;18.52;100.00;101204.44;2048762;28;24794;-70
2022/08/04 02:07:02;;;;;;;39.92;22.35;;;;;;;18.51;100.00;101205.38;2048846;28;20052;-69
2022/08/04 02:08:30;;;;;;;34.55;23.10;;;;;;;18.51;100.00;101197.25;2048705;28;33651;-69
2022/08/04 02:10:01;;;;;;;35.08;21.17;;;;;;;18.48;100.00;101202.81;2047858;28;32271;-69
2022/08/04 02:11:20;;;;;;;34.63;21.50;;;;;;;18.45;100.00;101198.44;2046665;28;31432;-70
2022/08/04 02:12:49;;;;;;;32.63;20.95;;;;;;;18.46;100.00;101196.59;2053880;28;26634;-70
2022/08/04 02:14:11;;;;;;;33.90;21.60;;;;;;;18.43;100.00;101192.22;2050129;28;27534;-69
2022/08/04 02:15:27;;;;;;;39.13;22.75;;;;;;;18.42;100.00;101193.16;2048349;28;30473;-70
2022/08/04 02:16:48;;;;;;;35.22;23.48;;;;;;;18.44;100.00;101195.81;2048610;28;27614;-69
2022/08/04 02:18:23;;;;;;;34.75;23.25;;;;;;;18.45;100.00;101194.88;2047877;28;33907;-70
2022/08/04 02:19:58;;;;;;;37.08;21.70;;;;;;;18.47;100.00;101195.66;2047746;28;32853;-69
2022/08/04 02:21:02;;;;;;;30.55;20.73;;;;;;;18.45;100.00;101194.88;2048053;28;26488;-70
2022/08/04 02:22:12;;;;;;;31.95;22.25;;;;;;;18.43;100.00;101203.06;2048775;28;26814;-70
2022/08/04 02:23:33;;;;;;;33.67;21.60;;;;;;;18.45;100.00;101194.88;2048850;28;20916;-70
2022/08/04 02:24:45;;;;;;;38.70;20.85;;;;;;;18.41;100.00;101190.53;2048787;28;28469;-70
2022/08/04 02:26:05;;;;;;;33.25;22.25;;;;;;;18.40;100.00;101188.78;2047390;28;38189;-69
2022/08/04 02:27:08;;;;;;;38.75;22.30;;;;;;;18.39;100.00;101179.75;2048503;28;22013;-70
2022/08/04 02:28:32;;;;;;;36.75;21.23;;;;;;;18.41;100.00;101188.72;2047203;28;37369;-69
2022/08/04 02:29:46;;;;;;;32.22;21.60;;;;;;;18.41;100.00;101190.53;2047858;28;23572;-70
2022/08/04 02:31:12;;;;;;;36.63;21.80;;;;;;;18.37;100.00;101186.25;2048839;28;20047;-70
2022/08/04 02:32:39;;;;;;;30.08;20.08;;;;;;;18.36;100.00;101182.66;2047836;28;34150;-69
2022/08/04 02:33:45;;;;;;;31.20;21.40;;;;;;;18.35;100.00;101190.88;2047324;28;34413;-69
2022/08/04 02:35:05;;;;;;;27.92;20.60;;;;;;;18.31;100.00;101188.31;2048162;28;31328;-69
2022/08/04 02:36:13;;;;;;;32.63;19.97;;;;;;;18.32;100.00;101183.75;2047487;28;35672;-69
2022/08/04 02:37:19;;;;;;;38.33;21.52;;;;;;;18.34;100.00;101183.69;2048045;28;34101;-69
2022/08/04 02:38:48;;;;;;;29.95;20.10;;;;;;;18.30;100.00;101188.38;2047053;28;28273;-69
2022/08/04 02:39:53;;;;;;;31.27;18.63;;;;;;;18.30;100.00;101189.28;2043172;28;31143;-69
2022/08/04 02:40:57;;;;;;;25.85;18.02;;;;;;;18.34;100.00;101189.09;2047536;28;26082;-70
2022/08/04 02:42:02;;;;;;;31.73;19.95;;;;;;;18.31;100.00;101184.72;2047966;28;20916;-69
2022/08/04 02:43:07;;;;;;;29.55;18.90;;;;;;;18.31;100.00;101191.00;2047453;28;31747;-68
2022/08/04 02:44:18;;;;;;;33.47;20.30;;;;;;;18.29;100.00;101178.50;2040015;28;28902;-70
2022/08/04 02:45:21;;;;;;;28.80;18.55;;;;;;;18.32;100.00;101181.03;2047913;28;26886;-69
2022/08/04 02:46:24;;;;;;;30.67;18.67;;;;;;;18.30;100.00;101180.25;2047569;28;26377;-69
2022/08/04 02:47:28;;;;;;;29.20;17.90;;;;;;;18.29;100.00;101182.09;2048355;28;29992;-69
2022/08/04 02:48:55;;;;;;;26.02;16.42;;;;;;;18.28;100.00;101180.31;2048713;28;20050;-69
2022/08/04 02:49:58;;;;;;;26.73;18.40;;;;;;;18.30;100.00;101178.44;2048807;28;20098;-69
2022/08/04 02:51:02;;;;;;;28.67;17.50;;;;;;;18.27;100.00;101178.59;2048133;28;31852;-69
2022/08/04 02:52:09;;;;;;;28.05;17.73;;;;;;;18.28;100.00;101172.19;2047738;28;20147;-67
2022/08/04 02:53:14;;;;;;;26.50;17.80;;;;;;;18.27;100.00;101178.59;2040856;28;24404;-69
2022/08/04 02:54:21;;;;;;;32.83;17.65;;;;;;;18.27;100.00;101173.16;2048676;28;28511;-69
2022/08/04 02:55:34;;;;;;;23.92;14.98;;;;;;;18.23;100.00;101171.56;2053282;28;23625;-69
2022/08/04 02:56:39;;;;;;;27.65;16.95;;;;;;;18.22;100.00;101164.38;2047606;28;32776;-69
2022/08/04 02:57:46;;;;;;;25.83;17.33;;;;;;;18.21;100.00;101170.75;2048278;28;20067;-70
2022/08/04 02:58:55;;;;;;;30.52;18.50;;;;;;;18.21;100.00;101167.16;2047588;28;20043;-70
2022/08/04 03:00:14;;;;;;;26.40;15.57;;;;;;;18.20;100.00;101166.31;2047382;28;40624;-69
2022/08/04 03:01:20;;;;;;;23.85;15.73;;;;;;;18.19;100.00;101164.53;2047774;28;29411;-69
2022/08/04 03:02:48;;;;;;;23.05;16.25;;;;;;;18.17;100.00;101168.28;2047786;28;32985;-70
2022/08/04 03:04:16;;;;;;;23.65;16.00;;;;;;;18.18;100.00;101167.31;2048272;28;20048;-69
2022/08/04 03:05:38;;;;;;;21.13;13.15;;;;;;;18.19;100.00;101163.66;2048219;28;31692;-69
2022/08/04 03:07:35;;;;;;;27.92;16.67;;;;;;;18.17;100.00;101161.03;2047209;28;38027;-69
2022/08/04 03:09:22;;;;;;;27.65;17.00;;;;;;;18.18;100.00;101164.59;2048216;28;32489;-69
2022/08/04 03:10:46;;;;;;;32.38;18.45;;;;;;;18.21;100.00;101157.19;2048741;28;20051;-69
2022/08/04 03:12:02;;;;;;;26.02;16.08;;;;;;;18.23;100.00;101155.31;2048393;28;20183;-68
2022/08/04 03:13:48;;;;;;;25.58;17.58;;;;;;;18.25;100.00;101149.78;2047927;28;23303;-70
2022/08/04 03:15:33;;;;;;;26.08;17.25;;;;;;;18.25;100.00;101156.09;2048084;28;31303;-70
2022/08/04 03:17:05;;;;;;;25.65;17.20;;;;;;;18.26;100.00;101155.13;2049212;28;20230;-70
2022/08/04 03:18:43;;;;;;;29.15;16.88;;;;;;;18.29;100.00;101154.13;2048492;28;29075;-70
2022/08/04 03:20:06;;;;;;;33.88;18.20;;;;;;;18.32;100.00;101156.66;2047337;28;26046;-70
2022/08/04 03:21:45;;;;;;;28.95;17.02;;;;;;;18.31;100.00;101150.34;2048276;28;32604;-70
2022/08/04 03:23:25;;;;;;;29.95;16.70;;;;;;;18.34;100.00;101156.56;2048157;28;25054;-70
2022/08/04 03:25:11;;;;;;;27.80;16.95;;;;;;;18.34;100.00;101156.56;2047140;28;35377;-70
2022/08/04 03:26:44;;;;;;;22.95;16.27;;;;;;;18.33;100.00;101154.84;2047913;28;25687;-70
2022/08/04 03:28:26;;;;;;;29.83;17.92;;;;;;;18.34;100.00;101153.84;2047654;28;32241;-70
2022/08/04 03:30:07;;;;;;;27.73;16.67;;;;;;;18.35;100.00;101153.78;2047667;28;37639;-70
2022/08/04 03:31:47;;;;;;;23.58;16.05;;;;;;;18.35;100.00;101153.78;2047568;28;31376;-69
2022/08/04 03:33:19;;;;;;;24.65;16.02;;;;;;;18.33;100.00;101153.00;2048707;28;20143;-70
2022/08/04 03:34:48;;;;;;;28.15;16.40;;;;;;;18.37;100.00;101151.00;2048224;28;20142;-70
2022/08/04 03:36:07;;;;;;;29.00;16.83;;;;;;;18.38;100.00;101153.63;2047795;28;20040;-70
2022/08/04 03:37:43;;;;;;;27.88;15.77;;;;;;;18.41;100.00;101147.16;2048019;28;23448;-70
2022/08/04 03:39:37;;;;;;;27.27;15.82;;;;;;;18.43;100.00;101150.66;2048826;28;20082;-69
2022/08/04 03:41:01;;;;;;;26.35;16.00;;;;;;;18.43;100.00;101142.53;2047707;28;28416;-70
2022/08/04 03:42:32;;;;;;;27.95;15.95;;;;;;;18.45;100.00;101149.63;2047760;28;31624;-70
2022/08/04 03:44:10;;;;;;;28.98;17.27;;;;;;;18.47;100.00;101147.72;2039248;29;20059;-70
2022/08/04 03:45:58;;;;;;;24.70;15.20;;;;;;;18.48;100.00;101148.59;2047619;28;38079;-70
2022/08/04 03:47:27;;;;;;;25.92;15.35;;;;;;;18.50;100.00;101149.38;2039965;29;20405;-70
2022/08/04 03:49:06;;;;;;;25.83;15.93;;;;;;;18.51;100.00;101140.31;2039909;28;30972;-70
2022/08/04 03:50:42;;;;;;;24.85;15.43;;;;;;;18.52;100.00;101139.34;2047808;28;27199;-75
2022/08/04 03:54:43;;;;;;;26.55;14.95;;;;;;;18.53;100.00;101134.81;2032777;29;23253;-74
2022/08/04 03:55:59;;;;;;;26.95;14.38;;;;;;;18.51;100.00;101133.03;2048247;28;23913;-73
2022/08/04 03:57:37;;;;;;;26.23;15.10;;;;;;;18.51;100.00;101141.16;2048242;28;20087;-74
2022/08/04 03:58:46;;;;;;;23.73;14.57;;;;;;;18.51;100.00;101133.03;2048449;28;20138;-74
2022/08/04 03:59:55;;;;;;;26.20;14.20;;;;;;;18.52;100.00;101142.06;2047193;28;34687;-73
2022/08/04 04:01:21;;;;;;;24.17;14.38;;;;;;;18.52;100.00;101139.34;2040465;28;38675;-73
2022/08/04 04:02:54;;;;;;;27.80;14.52;;;;;;;18.54;100.00;101136.53;2048345;28;20079;-73
2022/08/04 04:04:44;;;;;;;21.88;14.27;;;;;;;18.55;100.00;101141.88;2047115;28;33806;-74
2022/08/04 04:06:16;;;;;;;17.08;11.98;;;;;;;18.58;100.00;101136.31;2047176;28;29494;-73
2022/08/04 04:08:09;;;;;;;19.83;13.25;;;;;;;18.60;100.00;101141.66;2047340;28;26406;-73
2022/08/04 04:10:06;;;;;;;18.58;11.88;;;;;;;18.64;100.00;101129.66;2049269;28;24485;-74
2022/08/04 04:11:16;;;;;;;20.70;13.52;;;;;;;18.65;100.00;101135.03;2038395;29;24948;-74
2022/08/04 04:12:59;;;;;;;22.88;13.05;;;;;;;18.68;100.00;101133.97;2044949;28;36227;-73
2022/08/04 04:14:38;;;;;;;19.45;12.10;;;;;;;18.73;100.00;101134.59;2046071;28;29495;-73
2022/08/04 04:16:04;;;;;;;19.45;12.48;;;;;;;18.79;100.00;101138.81;2046115;28;25280;-74
2022/08/04 04:17:28;;;;;;;21.63;11.50;;;;;;;18.83;100.00;101124.16;2047571;28;21283;-73
2022/08/04 04:18:54;;;;;;;18.50;11.73;;;;;;;18.88;100.00;101125.66;2047216;28;20123;-73
2022/08/04 04:20:16;;;;;;;18.15;11.02;;;;;;;18.95;100.00;101123.50;2046703;28;33739;-73
2022/08/04 04:21:27;;;;;;;26.15;13.93;;;;;;;19.00;100.00;101128.66;2047184;28;20933;-74
2022/08/04 04:22:40;;;;;;;20.90;12.57;;;;;;;19.05;100.00;101119.28;2048012;28;30830;-73
2022/08/04 04:24:17;;;;;;;20.23;12.98;;;;;;;19.12;99.50;101117.13;2053763;28;30917;-74
2022/08/04 04:26:05;;;;;;;21.92;12.38;;;;;;;19.37;98.64;101121.19;2046913;28;29972;-73
2022/08/04 04:27:25;;;;;;;14.73;10.10;;;;;;;19.82;97.39;101125.81;2054084;28;34178;-73
2022/08/04 04:28:44;;;;;;;;;;;;;;;20.11;95.29;101120.47;2051300;28;40622;-73
2022/08/04 04:30:10;;;;;;;18.55;10.35;;;;;;;20.49;93.00;101116.38;2047410;28;25880;-74
2022/08/04 04:31:42;;;;;;;19.77;9.95;;;;;;;20.91;89.91;101118.31;2047439;28;27911;-75
2022/08/04 04:33:24;;;;;;;17.20;9.55;;;;;;;21.56;87.13;101111.44;2047547;28;25953;-73
2022/08/04 04:34:39;;;;;;;21.58;9.45;;;;;;;21.90;83.34;101106.44;2054295;28;35562;-74
2022/08/04 04:36:33;;;;;;;14.65;8.40;;;;;;;22.04;81.67;101114.53;2052876;28;34221;-74
2022/08/04 04:38:02;;;;;;;19.50;7.85;;;;;;;22.24;81.69;101109.56;2047735;28;33790;-74
2022/08/04 04:39:28;;;;;;;16.60;8.35;;;;;;;22.33;81.70;101108.09;2047678;28;25010;-74
2022/08/04 04:41:14;;;;;;;13.05;8.02;;;;;;;22.60;79.29;101108.88;2047609;28;35288;-74
2022/08/04 04:42:58;;;;;;;19.67;8.85;;;;;;;22.75;78.35;101106.88;2047687;28;29384;-74
2022/08/04 04:44:32;;;;;;;12.40;6.97;;;;;;;23.45;76.15;101113.69;2046054;28;38528;-73
2022/08/04 04:45:54;;;;;;;18.13;7.20;;;;;;;23.47;74.75;101106.25;2038184;29;41670;-73
2022/08/04 04:47:28;;;;;;;15.45;6.80;;;;;;;23.51;74.80;101109.59;2046622;28;31936;-73
2022/08/04 04:48:53;;;;;;;12.68;6.40;;;;;;;23.50;74.89;101102.41;2047403;28;37054;-72
2022/08/04 04:50:14;;;;;;;14.35;6.65;;;;;;;23.39;72.78;101108.69;2047442;28;30922;-73
2022/08/04 04:51:16;;;;;;;12.27;6.13;;;;;;;23.47;74.84;101108.09;2046997;28;38398;-72
2022/08/04 04:52:23;;;;;;;15.18;6.43;;;;;;;23.40;74.82;101107.69;2046846;28;32974;-72
2022/08/04 04:54:14;;;;;;;14.63;6.32;;;;;;;23.15;74.85;101101.31;2046940;28;27671;-73
2022/08/04 04:55:38;;;;;;;12.68;6.40;;;;;;;23.03;74.56;101103.03;2047642;28;24076;-73
2022/08/04 04:57:11;;;;;;;15.35;6.38;;;;;;;22.91;75.92;101108.53;2047967;28;21523;-72
2022/08/04 04:58:17;;;;;;;14.52;6.45;;;;;;;22.74;76.86;101098.81;2046813;28;28619;-75
2022/08/04 04:59:23;;;;;;;14.07;6.22;;;;;;;22.68;77.20;101102.84;2042845;28;38011;-74
2022/08/04 05:00:46;;;;;;;17.02;6.65;;;;;;;22.45;78.25;101104.47;2048045;28;34551;-72
2022/08/04 05:02:56;;;;;;;11.70;6.13;;;;;;;22.26;78.55;101089.41;2051458;28;32514;-72
2022/08/04 05:04:51;;;;;;;14.18;6.60;;;;;;;22.04;79.26;101100.03;2038730;29;20957;-73
2022/08/04 05:06:14;;;;;;;9.23;6.03;;;;;;;22.00;79.90;101098.50;2022930;29;30208;-74
2022/08/04 05:07:44;;;;;;;19.67;6.20;;;;;;;21.99;79.80;101100.34;2038704;29;29330;-74
2022/08/04 05:09:22;;;;;;;18.05;6.15;;;;;;;21.99;80.16;101099.47;2038845;29;30531;-74
2022/08/04 05:11:07;;;;;;;14.32;6.22;;;;;;;22.43;78.64;101098.25;2047383;28;31493;-73
2022/08/04 05:12:27;;;;;;;12.02;5.82;;;;;;;22.78;76.92;101103.94;2047415;28;28527;-75
2022/08/04 05:13:57;;;;;;;12.77;5.47;;;;;;;23.13;75.35;101097.84;2047978;28;20897;-73
2022/08/04 05:15:27;;;;;;;11.40;6.10;;;;;;;23.68;73.34;101097.41;2047737;28;20039;-72
2022/08/04 05:16:40;;;;;;;9.88;4.93;;;;;;;23.91;72.06;101092.97;2043679;28;27676;-72
2022/08/04 05:17:51;;;;;;;10.23;5.38;;;;;;;24.30;71.05;101090.84;2049402;28;37053;-72
2022/08/04 05:19:40;;;;;;;16.05;5.43;;;;;;;24.57;69.78;101088.69;2047061;28;25395;-72
2022/08/04 05:20:54;;;;;;;14.35;5.60;;;;;;;24.94;67.26;101087.59;2008993;29;40305;-72
2022/08/04 05:22:15;;;;;;;10.00;5.47;;;;;;;25.11;66.84;101087.09;2040720;28;30041;-72
2022/08/04 05:23:25;;;;;;;13.10;4.60;;;;;;;25.69;63.56;101077.78;2051496;28;31838;-73
2022/08/04 05:24:31;;;;;;;11.35;4.13;;;;;;;26.01;63.28;101082.41;2047272;28;31923;-74
2022/08/04 05:25:44;;;;;;;8.05;4.00;;;;;;;26.39;60.79;101083.69;2050695;28;32329;-73
2022/08/04 05:26:55;;;;;;;11.80;4.05;;;;;;;26.81;61.76;101079.06;2053856;28;20040;-73
2022/08/04 05:28:23;;;;;;;12.23;4.43;;;;;;;26.83;59.05;101077.03;2048026;28;30224;-72
2022/08/04 05:29:42;;;;;;;13.88;3.88;;;;;;;27.17;59.87;101075.84;2044637;28;20099;-74
2022/08/04 05:30:58;;;;;;;8.50;3.75;;;;;;;28.01;56.89;101077.34;2053211;28;36810;-72
2022/08/04 05:32:06;;;;;;;9.85;3.47;;;;;;;28.11;56.29;101079.06;2048202;28;31058;-72
2022/08/04 05:33:13;;;;;;;10.05;4.05;;;;;;;28.03;55.67;101084.41;2050207;28;30299;-73
2022/08/04 05:34:25;;;;;;;7.10;3.65;;;;;;;27.58;55.58;101084.94;2054995;28;26844;-72
2022/08/04 05:35:33;;;;;;;9.43;2.97;;;;;;;27.97;55.71;101076.75;2047876;28;31896;-73
2022/08/04 05:36:47;;;;;;;11.23;4.10;;;;;;;28.14;54.19;101083.44;2042473;28;36094;-72
2022/08/04 05:37:53;;;;;;;9.65;3.53;;;;;;;28.27;54.58;101077.63;2050927;28;29981;-72
2022/08/04 05:39:03;;;;;;;9.20;3.00;;;;;;;28.82;54.31;101079.66;2053759;28;25645;-71
2022/08/04 05:40:10;;;;;;;11.05;3.50;;;;;;;28.35;53.15;101078.63;2048827;28;20067;-72
2022/08/04 05:41:13;;;;;;;13.00;3.53;;;;;;;28.03;55.60;101078.91;2041072;28;20974;-72
2022/08/04 05:42:18;;;;;;;9.18;3.20;;;;;;;28.54;53.16;101079.63;2048393;28;27132;-74
2022/08/04 05:43:22;;;;;;;13.63;3.25;;;;;;;28.61;52.68;101078.00;2048535;28;20035;-71
2022/08/04 05:44:27;;;;;;;11.45;3.42;;;;;;;28.29;54.09;101084.69;2047818;28;35519;-73
2022/08/04 05:45:29;;;;;;;8.55;3.25;;;;;;;27.82;54.16;101076.31;2047835;28;31561;-71
2022/08/04 05:46:41;;;;;;;7.03;2.85;;;;;;;27.62;56.58;101086.44;2042744;28;20098;-72
2022/08/04 05:47:47;;;;;;;5.43;2.75;;;;;;;27.38;56.30;101078.56;2048908;28;34549;-71
2022/08/04 05:48:50;;;;;;;8.27;3.13;;;;;;;26.81;58.16;101083.66;2048442;28;28413;-72
2022/08/04 05:49:56;;;;;;;9.85;3.22;;;;;;;26.36;59.91;101081.22;2048533;28;33679;-71
2022/08/04 05:51:04;;;;;;;;;;;;;;;25.76;61.40;101073.50;2048405;28;30835;-72
2022/08/04 05:52:08;;;;;;;9.75;3.53;;;;;;;25.51;62.64;101086.53;2047639;28;26685;-72
2022/08/04 05:53:15;;;;;;;11.13;2.90;;;;;;;25.11;64.68;101084.34;2048718;28;20044;-72
2022/08/04 05:54:19;;;;;;;10.30;2.80;;;;;;;24.90;66.19;101084.22;2041054;28;26719;-72
2022/08/04 05:55:22;;;;;;;12.82;3.50;;;;;;;24.71;66.26;101078.50;2048795;28;28244;-72
2022/08/04 05:56:44;;;;;;;11.32;2.90;;;;;;;24.66;66.77;101075.28;2053462;28;20055;-72
2022/08/04 05:57:47;;;;;;;9.70;3.38;;;;;;;24.62;67.35;101081.97;2048413;28;20174;-72
2022/08/04 05:58:55;;;;;;;9.52;2.80;;;;;;;24.46;67.38;101079.56;2048281;28;35197;-71
2022/08/04 06:00:00;;;;;;;7.60;2.72;;;;;;;24.42;67.57;101091.75;2047587;28;38063;-72
2022/08/04 06:01:17;;;;;;;8.23;2.95;;;;;;;24.39;68.20;101088.28;2048296;28;26692;-71
2022/08/04 06:02:20;;;;;;;7.78;2.92;;;;;;;24.40;67.80;101084.53;2042406;28;29012;-72
2022/08/04 06:03:24;;;;;;;9.18;2.92;;;;;;;24.42;67.95;101091.75;2048514;28;21050;-72
2022/08/04 06:04:34;;;;;;;8.90;2.53;;;;;;;24.29;68.61;101089.97;2047929;28;25926;-71